NUS weather

Norsup Airport
Norsup, Malampa, Vanuatu

Public forecast

Using degrees Celsius for public forecast. Weather courtesy of forecast.io.

METAR (pilot weather report)

Report is more than 6 hours old.

Closest report is Lamap Airport, 33.7 nm (62.4 km) SE. Retrieved 2019/05/29 19:00 UTC (19 days ago):

NVSL 291900Z NLI

TAF (pilot weather forecast)

Forecast is more than 12 hours old.

Retrieved 2019/06/17 06:32 UTC (14 hours ago):

TAF NVSP 170430Z 1706/1806 10010KT 9999 SCT020 BKN040 PROB30 INTER 1706/1712 9000 -SHRA BKN018